Madison, MN (56256)

2:19 AM CST on February 09, 2016 (GMT -0600)
Madison-Lac Qui Parle County | | Change Station
CLOSE
Current Station
Airport
Location: Madison,
Elevation: 1083 ft
Nearby Weather Stations

Elev 1083 ft 44.98 °N, 96.18 °W | Updated 5 minutes ago

Scattered Clouds
Scattered Clouds
9 °F
Feels Like -10 °F
N
20
Wind Variable Wind from NNW

Today
High -- | Low -- °F
--% Chance of Precip.
Yesterday
High -- | Low -- °F
Precip. -- in
Pressure 30.17 in
Visibility 10.0 miles
Clouds Scattered Clouds 1600 ft
Scattered Clouds 2100 ft
Windchill -10 °F
Dew Point 1 °F
Humidity 73%
Rainfall 0.00 in
Snow Depth Not available.
7:34 AM 5:43 PM
New Moon, 1% visible
METAR KDXX 090814Z AUTO 33017KT 10SM SCT016 SCT021 M13/M17 A3017 RMK AO2
Pressure 30.17 in
Visibility 10.0 miles
Clouds Scattered Clouds 1600 ft
Scattered Clouds 2100 ft
Windchill -10 °F
Dew Point 1 °F
Humidity 73%
Rainfall 0.00 in
Snow Depth Not available.
7:34 AM 5:43 PM
New Moon, 1% visible
METAR KDXX 090814Z AUTO 33017KT 10SM SCT016 SCT021 M13/M17 A3017 RMK AO2

10-Day Weather Forecast

Almanac

Astronomy

Feb. 09, 2016 Rise Set
Actual Time
Civil Twilight
Nautical Twilight
Astronomical Twilight
Moon
Length of Visible Light
Length of Day
Tomorrow will be .
, % of the Moon is Illuminated

Today's Extremes

State Highs State Lows

Community

WunderPhotos

Upload Photos

1,891,571 photos uploaded!

WunderBlog® & News

Nearby

Air Quality

  Air Quality AQ Index Pollutant
Not available.

Snow Depth

Station Depth Elevation

Earthquake Activity

City Distance Mag. Time & Date
Minimum magnitude displayed is 2.5.

Coastal Water Temperatures

Place Temperature

Stations

Nearby Weather Stations

Station Location Temp. Windchill Dew Point Humidity Wind Precip. Elev Updated Type
                   

Watches & Warnings

There are currently no watches in effect.